Time;durP1;ratioP1;P1;durP2;ratioP2;P2;SDS_P1;SDS_P2;PMS_P1;PMS_P2;Temp;Humidity;BMP_temperature;BMP_pressure;BME280_temperature;BME280_humidity;BME280_pressure;Samples;Min_cycle;Max_cycle;Signal;HPM_P1;HPM_P2
2021/09/10 00:01:08;;;;;;;10.57;5.55;;;461.50;2380.80;;;;;;5051784;28;20468;-73
2021/09/10 00:03:34;;;;;;;8.68;4.72;;;461.40;2380.80;;;;;;5052463;28;20033;-73
2021/09/10 00:06:00;;;;;;;8.40;4.65;;;461.40;2380.80;;;;;;5052463;28;20111;-73
2021/09/10 00:08:26;;;;;;;11.05;4.60;;;461.40;2380.80;;;;;;5051116;28;20365;-74
2021/09/10 00:10:52;;;;;;;8.77;4.78;;;461.40;2380.80;;;;;;5051397;28;20075;-73
2021/09/10 00:13:17;;;;;;;12.15;5.53;;;461.40;2380.80;;;;;;5051478;28;20024;-73
2021/09/10 00:15:43;;;;;;;7.20;4.50;;;461.40;2380.80;;;;;;5039323;28;20029;-73
2021/09/10 00:18:09;;;;;;;7.07;4.30;;;461.40;2380.80;;;;;;5051632;28;20017;-74
2021/09/10 00:20:35;;;;;;;6.97;4.35;;;461.30;2380.80;;;;;;5051863;28;20029;-73
2021/09/10 00:23:01;;;;;;;10.20;5.15;;;461.30;2380.80;;;;;;5034431;28;20504;-73
2021/09/10 00:25:27;;;;;;;6.90;4.55;;;461.30;2380.80;;;;;;5048430;28;20491;-74
2021/09/10 00:27:52;;;;;;;12.60;5.55;;;461.20;2380.80;;;;;;5033451;28;20052;-74
2021/09/10 00:30:18;;;;;;;10.80;5.38;;;461.20;2380.80;;;;;;5029900;28;20029;-74
2021/09/10 00:32:44;;;;;;;13.07;5.55;;;461.10;2380.80;;;;;;5045488;28;20025;-74
2021/09/10 00:35:11;;;;;;;11.57;4.47;;;461.20;2380.80;;;;;;5040078;28;20026;-75
2021/09/10 00:37:37;;;;;;;7.88;5.60;;;461.20;2380.80;;;;;;5031007;28;20025;-74
2021/09/10 00:40:05;;;;;;;8.27;4.47;;;461.20;2380.80;;;;;;5051498;28;20025;-73
2021/09/10 00:42:30;;;;;;;10.10;5.65;;;461.10;2380.80;;;;;;5051765;28;20029;-73
2021/09/10 00:44:56;;;;;;;10.35;5.55;;;461.10;2380.80;;;;;;5050839;28;20448;-73
2021/09/10 00:47:23;;;;;;;9.85;5.50;;;461.10;2380.80;;;;;;5033520;28;20423;-73
2021/09/10 00:49:49;;;;;;;13.35;6.28;;;461.10;2380.80;;;;;;5051184;28;20234;-73
2021/09/10 00:52:16;;;;;;;11.25;5.45;;;461.10;2380.80;;;;;;5042760;28;20388;-74
2021/09/10 00:54:42;;;;;;;10.45;5.95;;;461.00;2380.80;;;;;;5031567;28;20083;-73
2021/09/10 00:57:08;;;;;;;11.80;6.30;;;461.00;2380.80;;;;;;5038834;28;20464;-73
2021/09/10 00:59:34;;;;;;;16.05;6.28;;;460.90;2380.80;;;;;;5051334;28;20028;-73
2021/09/10 01:02:00;;;;;;;8.02;5.20;;;460.90;2380.80;;;;;;5051452;28;20017;-73
2021/09/10 01:04:26;;;;;;;12.73;6.72;;;460.80;2380.80;;;;;;5040369;28;20464;-73
2021/09/10 01:06:54;;;;;;;12.23;5.82;;;460.90;2380.80;;;;;;5034573;28;20046;-72
2021/09/10 01:09:21;;;;;;;9.35;5.30;;;460.90;2380.80;;;;;;5051646;28;20099;-73
2021/09/10 01:11:48;;;;;;;11.15;6.55;;;460.80;2380.80;;;;;;5017308;28;20053;-73
2021/09/10 01:14:15;;;;;;;11.02;6.55;;;460.80;2380.80;;;;;;5050127;28;20017;-72
2021/09/10 01:16:41;;;;;;;8.75;6.03;;;460.80;2380.80;;;;;;5032338;28;20029;-73
2021/09/10 01:19:07;;;;;;;9.80;6.25;;;460.80;2380.80;;;;;;5041481;28;20086;-73
2021/09/10 01:21:33;;;;;;;10.40;5.78;;;460.80;2380.80;;;;;;5050933;28;20028;-73
2021/09/10 01:23:59;;;;;;;10.10;5.78;;;460.80;2380.80;;;;;;5051038;28;20048;-73
2021/09/10 01:26:25;;;;;;;11.05;8.35;;;436.10;2355.20;;;;;;5051324;28;20056;-72
2021/09/10 01:28:51;;;;;;;8.88;6.00;;;436.10;2355.20;;;;;;5033048;28;20037;-73
2021/09/10 01:31:17;;;;;;;11.00;6.60;;;436.10;2355.20;;;;;;5051305;28;20472;-73
2021/09/10 01:33:42;;;;;;;13.27;5.93;;;436.00;2355.20;;;;;;5032949;28;20456;-73
2021/09/10 01:36:09;;;;;;;10.77;5.80;;;436.00;2355.20;;;;;;5034991;28;20049;-73
2021/09/10 01:38:35;;;;;;;11.70;6.38;;;435.90;2355.20;;;;;;5021605;28;20081;-73
2021/09/10 01:41:01;;;;;;;11.43;6.50;;;435.90;2355.20;;;;;;5036877;28;20476;-73
2021/09/10 01:43:26;;;;;;;8.70;6.22;;;435.80;2355.20;;;;;;5037415;28;20035;-73
2021/09/10 01:45:52;;;;;;;11.88;6.97;;;435.70;2355.20;;;;;;5030042;28;20495;-72
2021/09/10 01:48:18;;;;;;;8.32;6.20;;;435.70;2355.20;;;;;;5044747;28;20059;-73
2021/09/10 01:50:44;;;;;;;9.80;5.38;;;435.60;2355.20;;;;;;5013660;28;20128;-72
2021/09/10 01:53:10;;;;;;;9.00;6.28;;;435.60;2355.20;;;;;;5029036;28;20037;-73
2021/09/10 01:55:36;;;;;;;8.40;5.65;;;435.60;2355.20;;;;;;5050627;28;20021;-72
2021/09/10 01:58:02;;;;;;;8.88;6.60;;;435.50;2355.20;;;;;;5051123;28;20537;-73
2021/09/10 02:00:28;;;;;;;8.18;6.10;;;435.50;2355.20;;;;;;5046324;28;20464;-73
2021/09/10 02:02:53;;;;;;;8.02;5.18;;;435.50;2355.20;;;;;;5043670;28;20032;-73
2021/09/10 02:05:19;;;;;;;7.65;5.63;;;435.50;2355.20;;;;;;5050026;28;20029;-73
2021/09/10 02:07:45;;;;;;;9.15;6.32;;;435.40;2355.20;;;;;;5029663;28;20028;-73
2021/09/10 02:10:12;;;;;;;8.25;4.93;;;435.40;2355.20;;;;;;5031619;28;20072;-73
2021/09/10 02:12:39;;;;;;;9.40;5.93;;;435.40;2355.20;;;;;;5032261;28;20033;-73
2021/09/10 02:15:06;;;;;;;8.70;6.00;;;435.30;2355.20;;;;;;5049989;28;20017;-73
2021/09/10 02:17:32;;;;;;;7.60;5.57;;;435.30;2355.20;;;;;;5047917;28;20024;-73
2021/09/10 02:19:58;;;;;;;8.48;5.43;;;435.20;2355.20;;;;;;5045064;28;20076;-73
2021/09/10 02:22:24;;;;;;;7.80;6.13;;;410.50;2355.20;;;;;;5041756;28;20045;-73
2021/09/10 02:24:49;;;;;;;8.45;5.50;;;410.50;2355.20;;;;;;5057832;28;20110;-73
2021/09/10 02:27:16;;;;;;;13.13;5.90;;;410.50;2355.20;;;;;;5032869;28;20022;-73
2021/09/10 02:29:42;;;;;;;9.95;6.57;;;410.40;2355.20;;;;;;5053264;28;20041;-73
2021/09/10 02:32:07;;;;;;;12.25;5.93;;;410.50;2355.20;;;;;;5053856;28;20104;-73
2021/09/10 02:34:33;;;;;;;8.75;6.53;;;410.50;2355.20;;;;;;5036432;28;20160;-73
2021/09/10 02:36:59;;;;;;;8.57;6.15;;;410.30;2355.20;;;;;;5034653;28;20503;-73
2021/09/10 02:39:25;;;;;;;8.85;6.00;;;410.30;2355.20;;;;;;5053860;28;20033;-73
2021/09/10 02:41:50;;;;;;;9.60;6.10;;;410.20;2355.20;;;;;;5035228;28;20426;-74
2021/09/10 02:44:16;;;;;;;9.75;5.70;;;410.20;2355.20;;;;;;5022390;28;20025;-74
2021/09/10 02:46:42;;;;;;;9.70;5.93;;;410.10;2355.20;;;;;;5038519;28;20021;-74
2021/09/10 02:49:08;;;;;;;9.13;6.22;;;410.10;2355.20;;;;;;5044008;28;20079;-74
2021/09/10 02:51:33;;;;;;;8.50;5.68;;;410.00;2355.20;;;;;;5030817;28;20029;-74
2021/09/10 02:54:00;;;;;;;11.40;5.97;;;409.80;2355.20;;;;;;5040749;28;20471;-74
2021/09/10 02:56:25;;;;;;;12.10;5.88;;;409.80;2355.20;;;;;;5053638;28;20057;-73
2021/09/10 02:58:51;;;;;;;12.63;7.25;;;409.80;2355.20;;;;;;5035465;28;20041;-73
2021/09/10 03:01:17;;;;;;;8.75;5.68;;;409.70;2355.20;;;;;;5053909;28;20444;-73
2021/09/10 03:03:43;;;;;;;13.10;6.53;;;409.60;2355.20;;;;;;5034728;28;20029;-73
2021/09/10 03:06:08;;;;;;;11.13;6.47;;;409.60;2355.20;;;;;;5053656;28;20040;-73
2021/09/10 03:08:34;;;;;;;9.82;6.13;;;409.60;2355.20;;;;;;5053337;28;20032;-74
2021/09/10 03:11:00;;;;;;;7.22;5.95;;;409.60;2355.20;;;;;;5028261;28;20064;-74
2021/09/10 03:13:26;;;;;;;7.88;5.97;;;384.90;2329.60;;;;;;5028512;28;20586;-74
2021/09/10 03:15:51;;;;;;;7.43;5.38;;;384.90;2329.60;;;;;;5052440;28;20028;-73
2021/09/10 03:18:17;;;;;;;7.78;5.40;;;384.90;2329.60;;;;;;5053564;28;20028;-73
2021/09/10 03:20:43;;;;;;;7.38;5.07;;;384.90;2329.60;;;;;;5052755;28;20036;-74
2021/09/10 03:23:10;;;;;;;9.18;5.55;;;384.90;2329.60;;;;;;5053157;28;20049;-74
2021/09/10 03:25:35;;;;;;;9.57;5.93;;;384.90;2329.60;;;;;;5053113;28;20025;-75
2021/09/10 03:28:02;;;;;;;6.75;5.32;;;384.90;2329.60;;;;;;5047221;28;20025;-73
2021/09/10 03:30:28;;;;;;;11.20;5.32;;;384.90;2329.60;;;;;;5056278;28;20024;-75
2021/09/10 03:32:53;;;;;;;13.18;6.15;;;384.90;2329.60;;;;;;5037415;28;20082;-73
2021/09/10 03:35:19;;;;;;;10.38;6.55;;;384.90;2329.60;;;;;;5052929;28;20031;-74
2021/09/10 03:37:45;;;;;;;9.98;5.22;;;384.80;2329.60;;;;;;5052974;28;20028;-74
2021/09/10 03:40:12;;;;;;;8.55;5.45;;;384.70;2329.60;;;;;;5037166;28;20113;-73
2021/09/10 03:42:38;;;;;;;13.65;5.78;;;384.70;2329.60;;;;;;5036781;28;20029;-72
2021/09/10 03:45:05;;;;;;;8.93;5.30;;;384.70;2329.60;;;;;;5052328;28;20028;-74
2021/09/10 03:47:31;;;;;;;9.95;6.10;;;384.60;2329.60;;;;;;5051880;28;20391;-74
2021/09/10 03:49:56;;;;;;;16.08;5.90;;;384.60;2329.60;;;;;;5052653;28;20104;-74
2021/09/10 03:52:22;;;;;;;7.47;5.38;;;384.60;2329.60;;;;;;5052070;28;20029;-74
2021/09/10 03:54:48;;;;;;;11.55;6.38;;;384.40;2329.60;;;;;;5034879;28;20056;-78
2021/09/10 03:57:14;;;;;;;8.80;5.60;;;384.40;2329.60;;;;;;5036884;28;20442;-80
2021/09/10 03:59:40;;;;;;;10.05;6.47;;;384.20;2329.60;;;;;;5052689;28;20032;-80
2021/09/10 04:02:05;;;;;;;9.23;6.13;;;384.20;2329.60;;;;;;5040783;28;20024;-78
2021/09/10 04:04:31;;;;;;;16.02;5.53;;;384.20;2329.60;;;;;;5052820;28;20029;-78
2021/09/10 04:06:57;;;;;;;11.18;5.50;;;384.20;2329.60;;;;;;5048263;28;20029;-78
2021/09/10 04:09:23;;;;;;;10.13;5.63;;;384.30;2329.60;;;;;;5028994;28;20028;-78
2021/09/10 04:11:48;;;;;;;9.25;6.35;;;384.40;2329.60;;;;;;5034424;28;20029;-78
2021/09/10 04:14:14;;;;;;;8.38;5.10;;;384.40;2329.60;;;;;;5033955;28;20439;-78
2021/09/10 04:16:40;;;;;;;8.13;5.28;;;384.40;2329.60;;;;;;5034569;28;20029;-77
2021/09/10 04:19:06;;;;;;;8.68;6.10;;;384.40;2329.60;;;;;;5036452;28;20483;-79
2021/09/10 04:21:31;;;;;;;9.73;5.55;;;384.40;2329.60;;;;;;5033253;28;20061;-77
2021/09/10 04:23:57;;;;;;;8.18;5.22;;;384.40;2329.60;;;;;;5033472;28;20053;-78
2021/09/10 04:26:23;;;;;;;9.15;5.07;;;384.40;2329.60;;;;;;5043923;28;20025;-79
2021/09/10 04:28:49;;;;;;;10.50;5.80;;;384.30;2329.60;;;;;;5026015;28;20029;-77
2021/09/10 04:31:17;;;;;;;12.40;6.50;;;384.40;2329.60;;;;;;5029386;28;20750;-77
2021/09/10 04:33:43;;;;;;;9.85;6.05;;;384.30;2329.60;;;;;;5041327;28;20033;-77
2021/09/10 04:36:09;;;;;;;12.80;6.40;;;384.40;2329.60;;;;;;5030147;28;20677;-75
2021/09/10 04:38:36;;;;;;;11.50;5.90;;;384.40;2329.60;;;;;;5052121;28;20025;-77
2021/09/10 04:41:02;;;;;;;9.43;5.50;;;384.30;2329.60;;;;;;5049464;28;20083;-76
2021/09/10 04:43:27;;;;;;;8.38;5.68;;;384.40;2329.60;;;;;;5056102;28;20483;-76
2021/09/10 04:45:53;;;;;;;11.38;5.90;;;384.40;2329.60;;;;;;5051073;28;20033;-78
2021/09/10 04:48:19;;;;;;;10.93;5.82;;;384.40;2329.60;;;;;;5042456;28;20029;-76
2021/09/10 04:50:45;;;;;;;8.68;5.32;;;384.40;2329.60;;;;;;5043852;28;20033;-76
2021/09/10 04:53:11;;;;;;;9.20;5.00;;;384.40;2329.60;;;;;;5030610;28;20039;-76
2021/09/10 04:55:36;;;;;;;9.05;5.82;;;384.50;2329.60;;;;;;5026607;28;20021;-77
2021/09/10 04:58:02;;;;;;;13.48;5.28;;;384.50;2329.60;;;;;;5044043;28;20031;-78
2021/09/10 05:00:28;;;;;;;14.43;5.40;;;384.50;2329.60;;;;;;5044137;28;20029;-75
2021/09/10 05:02:53;;;;;;;11.55;5.70;;;384.50;2329.60;;;;;;5043543;28;20108;-75
2021/09/10 05:05:19;;;;;;;11.15;6.80;;;384.40;2329.60;;;;;;5047850;28;20087;-76
2021/09/10 05:07:45;;;;;;;9.10;6.55;;;384.50;2329.60;;;;;;5022280;28;20030;-75
2021/09/10 05:10:11;;;;;;;13.50;6.47;;;384.60;2329.60;;;;;;5023226;28;20091;-74
2021/09/10 05:12:37;;;;;;;13.43;7.90;;;384.60;2329.60;;;;;;5046055;28;20087;-75
2021/09/10 05:15:03;;;;;;;21.13;9.50;;;384.70;2329.60;;;;;;5020546;28;20025;-74
2021/09/10 05:17:29;;;;;;;13.38;7.47;;;384.70;2329.60;;;;;;5025150;28;20029;-74
2021/09/10 05:19:55;;;;;;;12.77;7.97;;;384.90;2329.60;;;;;;5043775;28;20017;-75
2021/09/10 05:22:21;;;;;;;10.20;8.18;;;409.60;2355.20;;;;;;5023094;28;20092;-76
2021/09/10 05:24:46;;;;;;;13.70;7.72;;;409.70;2355.20;;;;;;5018975;28;20030;-74
2021/09/10 05:27:12;;;;;;;9.65;7.32;;;409.80;2355.20;;;;;;5019897;28;20400;-74
2021/09/10 05:29:38;;;;;;;10.10;7.25;;;409.90;2355.20;;;;;;5050053;28;20056;-75
2021/09/10 05:32:04;;;;;;;8.68;6.57;;;410.00;2355.20;;;;;;5045203;28;20033;-75
2021/09/10 05:34:30;;;;;;;10.90;6.75;;;410.10;2355.20;;;;;;5049160;28;20396;-73
2021/09/10 05:36:55;;;;;;;11.77;6.65;;;410.30;2355.20;;;;;;5053996;28;20036;-74
2021/09/10 05:39:21;;;;;;;11.43;6.40;;;410.40;2355.20;;;;;;5026281;28;20507;-73
2021/09/10 05:41:47;;;;;;;13.07;6.70;;;435.20;2355.20;;;;;;5040339;28;20483;-73
2021/09/10 05:44:14;;;;;;;15.50;8.02;;;435.40;2355.20;;;;;;5039346;28;20029;-76
2021/09/10 05:46:40;;;;;;;13.30;7.90;;;435.50;2355.20;;;;;;5023698;28;20087;-78
2021/09/10 05:49:06;;;;;;;19.45;7.95;;;435.70;2355.20;;;;;;5024409;28;20025;-74
2021/09/10 05:51:31;;;;;;;13.98;7.40;;;435.80;2355.20;;;;;;5026322;28;20099;-74
2021/09/10 05:53:57;;;;;;;10.10;6.65;;;436.00;2355.20;;;;;;5038624;28;20024;-74
2021/09/10 05:56:23;;;;;;;17.45;7.13;;;460.80;2380.80;;;;;;5032810;28;20022;-74
2021/09/10 05:58:48;;;;;;;12.25;5.30;;;461.00;2380.80;;;;;;5047358;28;20040;-74
2021/09/10 06:01:14;;;;;;;8.70;5.35;;;461.10;2380.80;;;;;;5030989;28;20087;-72
2021/09/10 06:03:40;;;;;;;8.57;4.95;;;461.30;2380.80;;;;;;5036422;28;20041;-75
2021/09/10 06:06:08;;;;;;;10.05;4.70;;;461.50;2380.80;;;;;;5054377;28;20100;-74
2021/09/10 06:08:35;;;;;;;9.02;4.50;;;461.70;2380.80;;;;;;5054778;28;20028;-74
2021/09/10 06:11:01;;;;;;;8.48;4.70;;;486.40;2380.80;;;;;;5036398;28;20033;-75
2021/09/10 06:13:27;;;;;;;10.27;5.50;;;486.70;2380.80;;;;;;5053928;28;20106;-74
2021/09/10 06:15:52;;;;;;;9.05;4.60;;;486.80;2380.80;;;;;;5053588;28;20480;-74
2021/09/10 06:18:18;;;;;;;14.48;5.80;;;487.00;2380.80;;;;;;5035193;28;20033;-75
2021/09/10 06:20:44;;;;;;;8.13;4.63;;;487.30;2380.80;;;;;;5035050;28;20037;-74
2021/09/10 06:23:10;;;;;;;7.18;5.03;;;512.10;2380.80;;;;;;5054123;28;20057;-74
2021/09/10 06:25:35;;;;;;;9.35;4.85;;;512.30;2380.80;;;;;;5053376;28;20036;-74
2021/09/10 06:28:01;;;;;;;7.88;4.07;;;512.40;2380.80;;;;;;5035502;28;20029;-74
2021/09/10 06:30:27;;;;;;;8.07;4.13;;;512.60;2380.80;;;;;;5035844;28;20029;-74
2021/09/10 06:32:52;;;;;;;5.72;4.20;;;512.80;2380.80;;;;;;5035883;28;20427;-74
2021/09/10 06:35:18;;;;;;;7.53;3.92;;;537.70;2406.40;;;;;;5035069;28;20032;-74
2021/09/10 06:37:44;;;;;;;8.63;4.30;;;538.00;2406.40;;;;;;5053746;28;20060;-74
2021/09/10 06:40:11;;;;;;;7.75;4.05;;;538.30;2406.40;;;;;;5036312;28;20045;-74
2021/09/10 06:42:37;;;;;;;7.30;3.90;;;538.50;2406.40;;;;;;5053679;28;20076;-74
2021/09/10 06:45:03;;;;;;;7.95;3.78;;;563.30;2432.00;;;;;;5040932;28;20475;-75
2021/09/10 06:47:29;;;;;;;8.68;5.03;;;563.40;2432.00;;;;;;5033412;28;20515;-75
2021/09/10 06:49:55;;;;;;;6.03;3.22;;;563.70;2432.00;;;;;;5036152;28;20044;-75
2021/09/10 06:52:21;;;;;;;7.40;4.07;;;563.90;2432.00;;;;;;5053327;28;20025;-75
2021/09/10 06:54:47;;;;;;;7.88;4.25;;;564.10;2432.00;;;;;;5053109;28;20052;-75
2021/09/10 06:57:13;;;;;;;11.95;4.45;;;588.80;2432.00;;;;;;5035403;28;20060;-74
2021/09/10 06:59:38;;;;;;;7.07;3.92;;;589.10;2432.00;;;;;;5022200;28;20764;-75
2021/09/10 07:02:04;;;;;;;8.30;4.20;;;589.30;2432.00;;;;;;5035649;28;20029;-75
2021/09/10 07:04:30;;;;;;;9.00;4.18;;;589.50;2432.00;;;;;;5039223;28;20032;-74
2021/09/10 07:06:56;;;;;;;9.63;3.80;;;614.40;2380.80;;;;;;5035709;28;20102;-75
2021/09/10 07:09:22;;;;;;;11.57;5.20;;;614.40;2329.60;;;;;;5052779;28;20483;-75
2021/09/10 07:11:48;;;;;;;14.35;6.68;;;614.60;2304.00;;;;;;5035687;28;20063;-75
2021/09/10 07:14:16;;;;;;;9.65;4.60;;;614.80;2252.80;;;;;;5035075;28;20052;-75
2021/09/10 07:16:41;;;;;;;10.30;4.32;;;614.90;2252.80;;;;;;5035699;28;20021;-75
2021/09/10 07:19:07;;;;;;;7.68;4.25;;;615.00;2227.20;;;;;;5027716;28;20391;-76
2021/09/10 07:21:33;;;;;;;11.30;4.65;;;615.30;2201.60;;;;;;5052893;28;20037;-75
2021/09/10 07:23:59;;;;;;;9.18;5.97;;;640.00;2150.40;;;;;;5043153;28;20404;-75
2021/09/10 07:26:25;;;;;;;8.75;3.83;;;640.10;2124.80;;;;;;5034643;28;20040;-75
2021/09/10 07:28:51;;;;;;;13.80;4.15;;;640.30;2073.60;;;;;;5039895;28;20034;-76
2021/09/10 07:31:17;;;;;;;8.65;4.68;;;640.40;2048.00;;;;;;5049299;28;20029;-75
2021/09/10 07:33:43;;;;;;;12.93;4.95;;;640.50;2022.40;;;;;;5053318;28;20430;-74
2021/09/10 07:36:09;;;;;;;11.27;4.90;;;640.70;2048.00;;;;;;5034540;28;20021;-75
2021/09/10 07:38:36;;;;;;;10.98;4.28;;;640.80;1996.80;;;;;;5047842;28;20030;-76
2021/09/10 07:41:03;;;;;;;13.35;5.15;;;640.90;1971.20;;;;;;5041426;28;20032;-75
2021/09/10 07:43:29;;;;;;;6.95;3.55;;;665.70;1971.20;;;;;;5027342;28;20029;-75
2021/09/10 07:45:55;;;;;;;8.77;4.45;;;665.70;1971.20;;;;;;5023422;28;20035;-75
2021/09/10 07:48:21;;;;;;;9.63;4.40;;;665.90;1945.60;;;;;;5023521;28;20081;-75
2021/09/10 07:50:47;;;;;;;9.48;4.20;;;666.30;1920.00;;;;;;5053439;28;20409;-75
2021/09/10 07:53:13;;;;;;;8.20;4.07;;;666.50;1868.80;;;;;;5059548;28;20044;-75
2021/09/10 07:55:39;;;;;;;15.90;5.28;;;666.50;1868.80;;;;;;5028980;28;20447;-75
2021/09/10 07:58:05;;;;;;;9.40;4.20;;;691.50;1817.60;;;;;;5054367;28;20100;-76
2021/09/10 08:00:31;;;;;;;10.90;4.82;;;691.70;1766.40;;;;;;5029362;28;20090;-75
2021/09/10 08:02:56;;;;;;;12.77;5.20;;;692.00;1740.80;;;;;;5026390;28;20033;-75
2021/09/10 08:05:22;;;;;;;7.40;4.70;;;716.80;1715.20;;;;;;5041149;28;20030;-75
2021/09/10 08:07:49;;;;;;;9.57;4.20;;;692.10;1689.60;;;;;;5023393;28;20029;-75
2021/09/10 08:10:15;;;;;;;9.80;5.03;;;692.00;1715.20;;;;;;5047817;28;20492;-75
2021/09/10 08:12:46;;;;;;;7.75;3.92;;;716.80;1689.60;;;;;;5017412;28;20041;-76
2021/09/10 08:15:15;;;;;;;6.72;4.13;;;717.00;1664.00;;;;;;5025298;28;20032;-75
2021/09/10 08:17:58;;;;;;;8.32;4.03;;;717.10;1664.00;;;;;;5021283;28;20207;-75
2021/09/10 08:20:33;;;;;;;11.88;4.35;;;717.40;1638.40;;;;;;5041819;28;20033;-75
2021/09/10 08:22:59;;;;;;;8.07;3.45;;;717.60;1587.20;;;;;;5045515;28;20044;-77
2021/09/10 08:25:24;;;;;;;10.35;4.15;;;742.50;1587.20;;;;;;5026376;28;20044;-76
2021/09/10 08:27:50;;;;;;;7.78;3.95;;;742.40;1587.20;;;;;;5045516;28;20129;-76
2021/09/10 08:30:16;;;;;;;5.93;4.38;;;742.70;1536.00;;;;;;5044946;28;20494;-76
2021/09/10 08:32:42;;;;;;;9.88;4.97;;;743.00;1510.40;;;;;;5023923;28;20033;-76
2021/09/10 08:35:08;;;;;;;9.15;4.53;;;743.10;1484.80;;;;;;5039768;28;20021;-75
2021/09/10 08:37:34;;;;;;;7.25;3.80;;;743.20;1484.80;;;;;;5037326;28;20029;-75
2021/09/10 08:40:01;;;;;;;10.13;4.95;;;768.10;1459.20;;;;;;5038670;28;20484;-75
2021/09/10 08:42:28;;;;;;;11.70;5.72;;;768.10;1433.60;;;;;;5021133;28;20100;-75
2021/09/10 08:44:53;;;;;;;9.48;4.35;;;768.30;1408.00;;;;;;5043273;28;20025;-75
2021/09/10 08:47:38;;;;;;;6.70;3.75;;;768.40;1382.40;;;;;;5039383;28;20024;-75
2021/09/10 08:50:04;;;;;;;8.02;4.18;;;768.40;1408.00;;;;;;5039667;28;20026;-76
2021/09/10 08:55:39;;;;;;;7.70;4.60;;;768.90;1382.40;;;;;;5044056;28;20032;-76
2021/09/10 08:58:05;;;;;;;9.18;5.88;;;793.80;1356.80;;;;;;5032342;28;20017;-76
2021/09/10 09:00:36;;;;;;;9.05;4.65;;;794.20;1331.20;;;;;;5044795;28;20037;-77
2021/09/10 09:03:07;;;;;;;10.52;5.00;;;794.30;1331.20;;;;;;5021886;28;20017;-77
2021/09/10 09:05:34;;;;;;;12.68;5.45;;;794.30;1331.20;;;;;;5039659;28;20032;-76
2021/09/10 09:08:06;;;;;;;12.00;5.57;;;819.30;1305.60;;;;;;5024606;28;20108;-76
2021/09/10 09:10:54;;;;;;;10.85;5.82;;;819.40;1280.00;;;;;;5039257;28;20029;-76
2021/09/10 09:13:21;;;;;;;16.20;6.85;;;819.70;1254.40;;;;;;5044325;28;20456;-75
2021/09/10 09:15:47;;;;;;;9.57;4.88;;;844.80;1280.00;;;;;;5027400;28;20029;-76
2021/09/10 09:18:15;;;;;;;10.05;4.53;;;845.00;1254.40;;;;;;5021993;28;20018;-77
2021/09/10 09:20:49;;;;;;;9.80;4.53;;;844.80;1254.40;;;;;;5019731;28;20040;-77
2021/09/10 09:23:30;;;;;;;10.90;5.07;;;844.80;1254.40;;;;;;5020626;28;20500;-76
2021/09/10 09:25:56;;;;;;;9.15;4.10;;;844.80;1254.40;;;;;;5024276;28;20034;-76
2021/09/10 09:28:32;;;;;;;13.13;5.32;;;844.80;1228.80;;;;;;5020889;28;20119;-78
2021/09/10 09:31:09;;;;;;;11.38;4.65;;;819.80;1203.20;;;;;;5020786;28;20066;-76
2021/09/10 09:33:39;;;;;;;13.18;6.22;;;844.80;1228.80;;;;;;5029658;28;20086;-77
2021/09/10 09:36:08;;;;;;;9.48;5.38;;;845.30;1203.20;;;;;;5028336;28;20493;-76
2021/09/10 09:38:36;;;;;;;12.90;5.32;;;845.50;1177.60;;;;;;5025403;28;20026;-76
2021/09/10 09:41:07;;;;;;;16.05;6.68;;;845.20;1203.20;;;;;;5036994;28;20431;-76
2021/09/10 09:43:35;;;;;;;20.98;11.38;;;845.50;1203.20;;;;;;5030747;28;20079;-76
2021/09/10 09:49:19;;;;;;;24.20;12.52;;;870.70;1152.00;;;;;;5046584;28;20517;-76
2021/09/10 09:52:25;;;;;;;18.17;11.68;;;870.60;1152.00;;;;;;5049273;28;20024;-76
2021/09/10 09:54:50;;;;;;;18.53;13.57;;;870.70;1152.00;;;;;;5056952;28;20024;-76
2021/09/10 09:57:18;;;;;;;19.15;10.93;;;870.70;1152.00;;;;;;5038803;28;20112;-76
2021/09/10 09:59:44;;;;;;;12.15;6.70;;;871.00;1152.00;;;;;;5027400;28;20782;-77
2021/09/10 10:02:10;;;;;;;16.75;11.70;;;871.30;1126.40;;;;;;5031143;28;20036;-77
2021/09/10 10:04:35;;;;;;;11.48;6.15;;;896.10;1100.80;;;;;;5049630;28;20025;-76
2021/09/10 10:07:04;;;;;;;7.25;4.70;;;896.20;1100.80;;;;;;5045014;28;20051;-77
2021/09/10 10:09:31;;;;;;;10.95;5.22;;;896.10;1100.80;;;;;;5046699;28;20025;-78
2021/09/10 10:12:01;;;;;;;17.20;10.15;;;896.10;1100.80;;;;;;5045744;28;20052;-78
2021/09/10 10:14:32;;;;;;;10.43;6.93;;;896.30;1100.80;;;;;;5042766;28;20022;-76
2021/09/10 10:17:06;;;;;;;9.30;6.05;;;896.40;1075.20;;;;;;5038970;28;20459;-77
2021/09/10 10:25:21;;;;;;;7.78;3.72;;;896.80;1075.20;;;;;;5039923;28;20029;-76
2021/09/10 10:27:47;;;;;;;13.02;4.75;;;896.80;1075.20;;;;;;5040538;28;20025;-77
2021/09/10 10:30:18;;;;;;;7.43;4.10;;;922.00;1075.20;;;;;;5026860;28;20076;-77
2021/09/10 10:32:52;;;;;;;11.93;4.88;;;921.80;1075.20;;;;;;5029186;28;20017;-77
2021/09/10 10:35:29;;;;;;;8.15;4.90;;;896.80;1049.60;;;;;;5032244;28;20378;-77
2021/09/10 10:38:01;;;;;;;11.90;4.43;;;896.60;1049.60;;;;;;5027276;28;20030;-77
2021/09/10 10:40:28;;;;;;;9.80;6.35;;;921.90;1075.20;;;;;;5042355;28;20033;-76
2021/09/10 10:42:55;;;;;;;6.43;4.43;;;922.10;1049.60;;;;;;5025822;28;20116;-76
2021/09/10 10:45:58;;;;;;;14.65;6.00;;;922.10;1049.60;;;;;;5027639;28;20151;-76
2021/09/10 10:48:33;;;;;;;8.05;3.88;;;922.40;1049.60;;;;;;5027097;28;20123;-77
2021/09/10 10:51:26;;;;;;;8.27;4.90;;;947.60;1024.00;;;;;;5029001;28;20056;-76
2021/09/10 10:53:55;;;;;;;9.93;5.85;;;948.00;998.40;;;;;;5026731;28;20041;-76
2021/09/10 10:59:31;;;;;;;12.93;5.47;;;972.80;998.40;;;;;;5060864;28;20501;-76
2021/09/10 11:02:21;;;;;;;7.68;3.72;;;973.00;998.40;;;;;;5062015;28;20068;-76
2021/09/10 11:05:07;;;;;;;12.77;3.63;;;947.80;972.80;;;;;;5032185;28;20021;-77
2021/09/10 11:07:33;;;;;;;7.60;3.83;;;947.20;998.40;;;;;;5035079;28;20388;-76
2021/09/10 11:10:00;;;;;;;7.65;3.22;;;947.20;972.80;;;;;;5027543;28;20396;-75
2021/09/10 11:12:26;;;;;;;7.47;4.00;;;947.20;998.40;;;;;;5046668;28;20392;-76
2021/09/10 11:14:53;;;;;;;8.02;3.47;;;947.80;972.80;;;;;;5026259;28;20025;-76
2021/09/10 11:17:28;;;;;;;7.03;4.03;;;972.90;972.80;;;;;;5022111;28;20108;-76
2021/09/10 11:19:58;;;;;;;9.05;3.85;;;972.80;972.80;;;;;;5025663;28;20819;-76
2021/09/10 11:22:28;;;;;;;14.98;4.57;;;973.00;972.80;;;;;;5043393;28;20424;-76
2021/09/10 11:25:08;;;;;;;9.18;4.72;;;973.10;998.40;;;;;;5043549;28;20514;-76
2021/09/10 11:27:49;;;;;;;14.98;8.45;;;973.20;947.20;;;;;;5044305;28;20029;-76
2021/09/10 11:30:15;;;;;;;10.45;6.50;;;973.40;947.20;;;;;;5027848;28;20021;-77
2021/09/10 11:32:42;;;;;;;10.15;5.28;;;998.40;947.20;;;;;;5050150;28;20033;-76
2021/09/10 11:35:18;;;;;;;11.27;6.35;;;973.30;947.20;;;;;;5037398;28;20076;-77
2021/09/10 11:37:51;;;;;;;7.78;5.15;;;973.40;947.20;;;;;;5025797;28;20021;-77
2021/09/10 11:40:29;;;;;;;6.85;3.90;;;998.40;947.20;;;;;;5024812;28;20392;-79
2021/09/10 11:43:14;;;;;;;8.65;4.28;;;998.70;947.20;;;;;;5040518;28;20064;-79
2021/09/10 11:46:26;;;;;;;10.30;6.38;;;973.60;947.20;;;;;;5031984;28;20043;-79
2021/09/10 11:48:59;;;;;;;12.88;9.02;;;998.70;947.20;;;;;;5023520;28;20026;-79
2021/09/10 11:51:50;;;;;;;7.75;4.10;;;998.60;947.20;;;;;;5024552;28;20039;-79
2021/09/10 11:54:28;;;;;;;13.68;6.93;;;998.80;947.20;;;;;;5042627;28;20091;-79
2021/09/10 11:56:54;;;;;;;9.30;5.03;;;999.00;947.20;;;;;;5024973;28;20033;-78
2021/09/10 11:59:27;;;;;;;12.50;7.22;;;999.20;921.60;;;;;;5042836;28;20037;-78
2021/09/10 12:01:53;;;;;;;13.73;6.07;;;999.00;947.20;;;;;;5042936;28;20029;-79
2021/09/10 12:04:34;;;;;;;14.70;6.18;;;999.00;921.60;;;;;;5026667;28;20064;-78
2021/09/10 12:07:02;;;;;;;9.25;6.72;;;999.20;947.20;;;;;;5042915;28;20025;-78
2021/09/10 12:09:30;;;;;;;8.45;5.47;;;1024.00;947.20;;;;;;5042675;28;20021;-79
2021/09/10 12:12:02;;;;;;;9.60;5.28;;;1024.00;947.20;;;;;;5022042;28;20029;-79
2021/09/10 12:15:01;;;;;;;15.38;3.67;;;1024.10;921.60;;;;;;5023413;28;20037;-78
2021/09/10 12:17:34;;;;;;;11.32;6.13;;;1024.30;947.20;;;;;;5038801;28;20017;-79
2021/09/10 12:20:41;;;;;;;9.90;6.35;;;1024.10;921.60;;;;;;5025191;28;20115;-79
2021/09/10 12:23:20;;;;;;;11.82;7.38;;;1024.20;921.60;;;;;;5037278;28;20053;-79
2021/09/10 12:26:05;;;;;;;6.25;4.03;;;1024.10;921.60;;;;;;5024698;28;20030;-79
2021/09/10 12:28:33;;;;;;;14.77;5.23;;;1024.40;921.60;;;;;;5049949;28;20040;-78
2021/09/10 12:31:01;;;;;;;5.18;3.30;;;1024.40;921.60;;;;;;5022624;28;20038;-80
2021/09/10 12:33:28;;;;;;;8.85;3.63;;;1024.00;921.60;;;;;;5023908;28;20040;-80